Time,TemperatureF,DewpointF,PressureIn,WindDirection,WindDirectionDegrees,WindSpeedMPH,WindSpeedGustMPH,Humidity,HourlyPrecipIn,Conditions,Clouds,dailyrainin,SoftwareType,DateUTC
2013-04-22 00:00:00,55.8,40.7,30.30,North,0,0.0,0.0,57,0.00,,,0.00,WUHU216HW,2013-04-22 04:00:00,
2013-04-22 00:01:00,55.8,40.7,30.30,North,0,0.0,0.0,57,0.00,,,0.00,WUHU216HW,2013-04-22 04:01:00,
2013-04-22 00:06:00,55.6,40.5,30.29,North,0,0.0,0.0,57,0.00,,,0.00,WUHU216HW,2013-04-22 04:06:00,
2013-04-22 00:11:00,55.4,40.3,30.29,North,0,0.0,0.0,57,0.00,,,0.00,WUHU216HW,2013-04-22 04:11:00,
2013-04-22 00:17:00,55.3,40.2,30.29,North,0,0.0,0.0,57,0.00,,,0.00,WUHU216HW,2013-04-22 04:17:00,
2013-04-22 00:22:00,55.3,40.2,30.29,North,0,0.0,0.0,57,0.00,,,0.00,WUHU216HW,2013-04-22 04:22:00,
2013-04-22 00:27:00,55.1,40.1,30.29,North,0,0.0,0.0,57,0.00,,,0.00,WUHU216HW,2013-04-22 04:27:00,
2013-04-22 00:32:00,55.1,40.5,30.29,North,0,0.0,0.0,58,0.00,,,0.00,WUHU216HW,2013-04-22 04:32:00,
2013-04-22 00:37:00,55.1,40.5,30.29,North,0,0.0,0.0,58,0.00,,,0.00,WUHU216HW,2013-04-22 04:37:00,
2013-04-22 00:42:00,54.9,40.3,30.29,North,0,0.0,0.0,58,0.00,,,0.00,WUHU216HW,2013-04-22 04:42:00,
2013-04-22 00:47:00,54.7,40.1,30.30,North,0,0.0,0.0,58,0.00,,,0.00,WUHU216HW,2013-04-22 04:47:00,
2013-04-22 00:52:00,54.7,40.1,30.29,North,0,0.0,0.0,58,0.00,,,0.00,WUHU216HW,2013-04-22 04:52:00,
2013-04-22 00:57:00,54.5,40.1,30.29,North,0,0.0,0.0,58,0.00,,,0.00,WUHU216HW,2013-04-22 04:57:00,
2013-04-22 01:02:00,54.4,40.3,30.29,North,0,0.0,0.0,59,0.00,,,0.00,WUHU216HW,2013-04-22 05:02:00,
2013-04-22 01:07:00,54.4,40.3,30.30,North,0,0.0,0.0,59,0.00,,,0.00,WUHU216HW,2013-04-22 05:07:00,
2013-04-22 01:12:00,54.2,40.1,30.29,North,0,0.0,0.0,59,0.00,,,0.00,WUHU216HW,2013-04-22 05:12:00,
2013-04-22 01:17:00,54.0,40.0,30.29,North,0,0.0,0.0,59,0.00,,,0.00,WUHU216HW,2013-04-22 05:17:00,
2013-04-22 01:22:00,54.0,40.5,30.29,North,0,0.0,0.0,60,0.00,,,0.00,WUHU216HW,2013-04-22 05:22:00,
2013-04-22 01:27:00,53.8,40.3,30.29,North,0,0.0,0.0,60,0.00,,,0.00,WUHU216HW,2013-04-22 05:27:00,
2013-04-22 01:33:00,53.6,40.1,30.29,North,0,0.0,0.0,60,0.00,,,0.00,WUHU216HW,2013-04-22 05:33:00,
2013-04-22 01:38:00,53.5,40.0,30.29,North,0,0.0,0.0,60,0.00,,,0.00,WUHU216HW,2013-04-22 05:38:00,
2013-04-22 01:43:00,53.3,40.1,30.28,North,0,0.0,0.0,61,0.00,,,0.00,WUHU216HW,2013-04-22 05:43:00,
2013-04-22 01:48:00,53.3,40.1,30.28,North,0,0.0,0.0,61,0.00,,,0.00,WUHU216HW,2013-04-22 05:48:00,
2013-04-22 01:53:00,53.1,40.0,30.28,North,0,0.0,0.0,61,0.00,,,0.00,WUHU216HW,2013-04-22 05:53:00,
2013-04-22 01:58:00,52.9,39.8,30.28,North,0,0.0,0.0,61,0.00,,,0.00,WUHU216HW,2013-04-22 05:58:00,
2013-04-22 02:03:00,52.7,39.6,30.27,North,0,0.0,0.0,61,0.00,,,0.00,WUHU216HW,2013-04-22 06:03:00,
2013-04-22 02:08:00,52.6,39.9,30.27,North,0,0.0,0.0,62,0.00,,,0.00,WUHU216HW,2013-04-22 06:08:00,
2013-04-22 02:13:00,52.6,39.9,30.27,North,0,0.0,0.0,62,0.00,,,0.00,WUHU216HW,2013-04-22 06:13:00,
2013-04-22 02:18:00,52.4,39.7,30.27,North,0,0.0,0.0,62,0.00,,,0.00,WUHU216HW,2013-04-22 06:18:00,
2013-04-22 02:24:00,52.2,39.5,30.27,North,0,0.0,0.0,62,0.00,,,0.00,WUHU216HW,2013-04-22 06:24:00,
2013-04-22 02:29:00,52.2,39.5,30.27,North,0,0.0,0.0,62,0.00,,,0.00,WUHU216HW,2013-04-22 06:29:00,
2013-04-22 02:34:00,52.0,39.3,30.27,North,0,0.0,0.0,62,0.00,,,0.00,WUHU216HW,2013-04-22 06:34:00,
2013-04-22 02:39:00,51.8,39.2,30.26,North,0,0.0,0.0,62,0.00,,,0.00,WUHU216HW,2013-04-22 06:39:00,
2013-04-22 02:44:00,51.7,39.0,30.26,North,0,0.0,0.0,62,0.00,,,0.00,WUHU216HW,2013-04-22 06:44:00,
2013-04-22 02:49:00,51.7,39.4,30.26,North,0,0.0,0.0,63,0.00,,,0.00,WUHU216HW,2013-04-22 06:49:00,
2013-04-22 02:54:00,51.5,39.2,30.26,North,0,0.0,0.0,63,0.00,,,0.00,WUHU216HW,2013-04-22 06:54:00,
2013-04-22 02:59:00,51.5,39.2,30.26,North,0,0.0,0.0,63,0.00,,,0.00,WUHU216HW,2013-04-22 06:59:00,
2013-04-22 03:04:00,51.5,39.2,30.25,North,0,0.0,0.0,63,0.00,,,0.00,WUHU216HW,2013-04-22 07:04:00,
2013-04-22 03:09:00,51.1,38.9,30.26,North,0,0.0,0.0,63,0.00,,,0.00,WUHU216HW,2013-04-22 07:09:00,
2013-04-22 03:14:00,51.1,39.3,30.25,North,0,0.0,0.0,64,0.00,,,0.00,WUHU216HW,2013-04-22 07:14:00,
2013-04-22 03:19:00,50.9,39.2,30.25,North,0,0.0,0.0,64,0.00,,,0.00,WUHU216HW,2013-04-22 07:19:00,
2013-04-22 03:25:00,50.8,39.0,30.25,North,0,0.0,0.0,64,0.00,,,0.00,WUHU216HW,2013-04-22 07:25:00,
2013-04-22 03:30:00,50.8,39.0,30.25,North,0,0.0,0.0,64,0.00,,,0.00,WUHU216HW,2013-04-22 07:30:00,
2013-04-22 03:35:00,50.6,38.8,30.25,North,0,0.0,0.0,64,0.00,,,0.00,WUHU216HW,2013-04-22 07:35:00,
2013-04-22 03:40:00,50.4,38.6,30.25,North,0,0.0,0.0,64,0.00,,,0.00,WUHU216HW,2013-04-22 07:40:00,
2013-04-22 03:45:00,50.2,38.4,30.25,North,0,0.0,0.0,64,0.00,,,0.00,WUHU216HW,2013-04-22 07:45:00,
2013-04-22 03:50:00,50.2,38.4,30.25,North,0,0.0,0.0,64,0.00,,,0.00,WUHU216HW,2013-04-22 07:50:00,
2013-04-22 03:55:00,50.0,38.4,30.25,North,0,0.0,0.0,64,0.00,,,0.00,WUHU216HW,2013-04-22 07:55:00,
2013-04-22 04:00:00,50.0,38.4,30.25,North,0,0.0,0.0,64,0.00,,,0.00,WUHU216HW,2013-04-22 08:00:00,
2013-04-22 04:05:00,49.9,38.5,30.25,North,0,0.0,0.0,65,0.00,,,0.00,WUHU216HW,2013-04-22 08:05:00,
2013-04-22 04:10:00,49.7,38.3,30.25,North,0,0.0,0.0,65,0.00,,,0.00,WUHU216HW,2013-04-22 08:10:00,
2013-04-22 04:16:00,49.7,38.3,30.25,North,0,0.0,0.0,65,0.00,,,0.00,WUHU216HW,2013-04-22 08:16:00,
2013-04-22 04:21:00,49.5,38.2,30.25,North,0,0.0,0.0,65,0.00,,,0.00,WUHU216HW,2013-04-22 08:21:00,
2013-04-22 04:26:00,49.3,38.0,30.25,North,0,0.0,0.0,65,0.00,,,0.00,WUHU216HW,2013-04-22 08:26:00,
2013-04-22 04:31:00,49.1,37.8,30.25,North,0,0.0,0.0,65,0.00,,,0.00,WUHU216HW,2013-04-22 08:31:00,
2013-04-22 04:36:00,49.0,38.1,30.25,North,0,0.0,0.0,66,0.00,,,0.00,WUHU216HW,2013-04-22 08:36:00,
2013-04-22 04:41:00,48.8,37.9,30.25,North,0,0.0,0.0,66,0.00,,,0.00,WUHU216HW,2013-04-22 08:41:00,
2013-04-22 04:46:00,48.8,37.9,30.25,North,0,0.0,0.0,66,0.00,,,0.00,WUHU216HW,2013-04-22 08:46:00,
2013-04-22 04:51:00,48.6,37.7,30.25,North,0,0.0,0.0,66,0.00,,,0.00,WUHU216HW,2013-04-22 08:51:00,
2013-04-22 04:57:00,48.4,37.5,30.26,North,0,0.0,0.0,66,0.00,,,0.00,WUHU216HW,2013-04-22 08:57:00,
2013-04-22 05:02:00,48.4,37.9,30.26,North,0,0.0,0.0,67,0.00,,,0.00,WUHU216HW,2013-04-22 09:02:00,
2013-04-22 05:07:00,48.2,37.7,30.26,North,0,0.0,0.0,67,0.00,,,0.00,WUHU216HW,2013-04-22 09:07:00,
2013-04-22 05:12:00,48.1,37.6,30.26,North,0,0.0,0.0,67,0.00,,,0.00,WUHU216HW,2013-04-22 09:12:00,
2013-04-22 05:17:00,47.9,37.5,30.26,North,0,0.0,0.0,67,0.00,,,0.00,WUHU216HW,2013-04-22 09:17:00,
2013-04-22 05:22:00,47.9,37.5,30.26,North,0,0.0,0.0,67,0.00,,,0.00,WUHU216HW,2013-04-22 09:22:00,
2013-04-22 05:27:00,47.9,37.5,30.26,North,0,0.0,0.0,67,0.00,,,0.00,WUHU216HW,2013-04-22 09:27:00,
2013-04-22 05:32:00,47.5,37.1,30.26,North,0,0.0,0.0,67,0.00,,,0.00,WUHU216HW,2013-04-22 09:32:00,
2013-04-22 05:37:00,47.3,36.9,30.26,North,0,0.0,0.0,67,0.00,,,0.00,WUHU216HW,2013-04-22 09:37:00,
2013-04-22 05:43:00,47.2,37.2,30.27,North,0,0.0,0.0,68,0.00,,,0.00,WUHU216HW,2013-04-22 09:43:00,
2013-04-22 05:48:00,47.2,37.2,30.27,North,0,0.0,0.0,68,0.00,,,0.00,WUHU216HW,2013-04-22 09:48:00,
2013-04-22 05:53:00,47.2,37.2,30.27,North,0,0.0,0.0,68,0.00,,,0.00,WUHU216HW,2013-04-22 09:53:00,
2013-04-22 05:58:00,47.0,37.0,30.27,North,0,0.0,0.0,68,0.00,,,0.00,WUHU216HW,2013-04-22 09:58:00,
2013-04-22 06:03:00,47.0,37.0,30.28,North,0,0.0,0.0,68,0.00,,,0.00,WUHU216HW,2013-04-22 10:03:00,
2013-04-22 06:08:00,46.8,36.8,30.28,North,0,0.0,0.0,68,0.00,,,0.00,WUHU216HW,2013-04-22 10:08:00,
2013-04-22 06:13:00,46.6,36.6,30.28,North,0,0.0,0.0,68,0.00,,,0.00,WUHU216HW,2013-04-22 10:13:00,
2013-04-22 06:18:00,46.4,36.5,30.28,North,0,0.0,0.0,68,0.00,,,0.00,WUHU216HW,2013-04-22 10:18:00,
2013-04-22 06:24:00,46.4,36.5,30.28,North,0,0.0,0.0,68,0.00,,,0.00,WUHU216HW,2013-04-22 10:24:00,
2013-04-22 06:29:00,46.3,36.3,30.28,North,0,0.0,0.0,68,0.00,,,0.00,WUHU216HW,2013-04-22 10:29:00,
2013-04-22 06:34:00,46.1,36.1,30.28,North,0,0.0,0.0,68,0.00,,,0.00,WUHU216HW,2013-04-22 10:34:00,
2013-04-22 06:39:00,45.9,35.9,30.29,North,0,0.0,0.0,68,0.00,,,0.00,WUHU216HW,2013-04-22 10:39:00,
2013-04-22 06:44:00,45.7,36.2,30.29,North,0,0.0,0.0,69,0.00,,,0.00,WUHU216HW,2013-04-22 10:44:00,
2013-04-22 06:49:00,45.7,35.7,30.29,North,0,0.0,0.0,68,0.00,,,0.00,WUHU216HW,2013-04-22 10:49:00,
2013-04-22 06:54:00,45.5,35.6,30.29,North,0,0.0,0.0,68,0.00,,,0.00,WUHU216HW,2013-04-22 10:54:00,
2013-04-22 06:59:00,45.5,35.6,30.30,North,0,0.0,0.0,68,0.00,,,0.00,WUHU216HW,2013-04-22 10:59:00,
2013-04-22 07:04:00,45.5,35.6,30.30,North,0,0.0,0.0,68,0.00,,,0.00,WUHU216HW,2013-04-22 11:04:00,
2013-04-22 07:10:00,45.5,35.6,30.30,North,0,0.0,0.0,68,0.00,,,0.00,WUHU216HW,2013-04-22 11:10:00,
2013-04-22 07:15:00,45.4,35.4,30.30,North,0,0.0,0.0,68,0.00,,,0.00,WUHU216HW,2013-04-22 11:15:00,
2013-04-22 07:20:00,45.4,35.0,30.31,North,0,0.0,0.0,67,0.00,,,0.00,WUHU216HW,2013-04-22 11:20:00,
2013-04-22 07:25:00,45.2,34.8,30.31,North,0,0.0,0.0,67,0.00,,,0.00,WUHU216HW,2013-04-22 11:25:00,
2013-04-22 07:30:00,45.0,34.7,30.31,North,0,0.0,0.0,67,0.00,,,0.00,WUHU216HW,2013-04-22 11:30:00,
2013-04-22 07:35:00,45.0,34.7,30.31,North,0,0.0,0.0,67,0.00,,,0.00,WUHU216HW,2013-04-22 11:35:00,
2013-04-22 07:40:00,45.0,34.3,30.31,North,0,0.0,0.0,66,0.00,,,0.00,WUHU216HW,2013-04-22 11:40:00,
2013-04-22 07:45:00,45.0,34.3,30.31,North,0,0.0,0.0,66,0.00,,,0.00,WUHU216HW,2013-04-22 11:45:00,
2013-04-22 07:51:00,45.0,34.3,30.31,North,0,0.0,0.0,66,0.00,,,0.00,WUHU216HW,2013-04-22 11:51:00,
2013-04-22 07:56:00,45.0,34.3,30.31,North,0,0.0,0.0,66,0.00,,,0.00,WUHU216HW,2013-04-22 11:56:00,
2013-04-22 08:01:00,44.8,33.8,30.31,North,0,0.0,0.0,65,0.00,,,0.00,WUHU216HW,2013-04-22 12:01:00,
2013-04-22 08:06:00,44.8,33.8,30.31,North,0,0.0,0.0,65,0.00,,,0.00,WUHU216HW,2013-04-22 12:06:00,
2013-04-22 08:11:00,45.0,33.9,30.31,North,0,0.0,0.0,65,0.00,,,0.00,WUHU216HW,2013-04-22 12:11:00,
2013-04-22 08:16:00,45.0,33.6,30.31,North,0,0.0,0.0,64,0.00,,,0.00,WUHU216HW,2013-04-22 12:16:00,
2013-04-22 08:21:00,45.2,33.7,30.31,North,0,0.0,0.0,64,0.00,,,0.00,WUHU216HW,2013-04-22 12:21:00,
2013-04-22 08:26:00,45.5,34.0,30.31,North,0,0.0,0.0,64,0.00,,,0.00,WUHU216HW,2013-04-22 12:26:00,
2013-04-22 08:32:00,45.7,33.9,30.31,North,0,0.0,0.0,63,0.00,,,0.00,WUHU216HW,2013-04-22 12:32:00,
2013-04-22 08:37:00,45.9,34.0,30.31,North,0,0.0,0.0,63,0.00,,,0.00,WUHU216HW,2013-04-22 12:37:00,
2013-04-22 08:42:00,46.1,33.8,30.31,North,0,0.0,0.0,62,0.00,,,0.00,WUHU216HW,2013-04-22 12:42:00,
2013-04-22 08:47:00,46.3,33.9,30.31,North,0,0.0,0.0,62,0.00,,,0.00,WUHU216HW,2013-04-22 12:47:00,
2013-04-22 08:52:00,46.4,33.7,30.31,North,0,0.0,0.0,61,0.00,,,0.00,WUHU216HW,2013-04-22 12:52:00,
2013-04-22 08:57:00,46.8,34.0,30.31,North,0,0.0,0.0,61,0.00,,,0.00,WUHU216HW,2013-04-22 12:57:00,
2013-04-22 09:02:00,46.8,33.7,30.31,North,0,0.0,0.0,60,0.00,,,0.00,WUHU216HW,2013-04-22 13:02:00,
2013-04-22 09:08:00,47.0,33.8,30.31,North,0,0.0,0.0,60,0.00,,,0.00,WUHU216HW,2013-04-22 13:08:00,
2013-04-22 09:13:00,47.3,34.6,30.31,North,0,0.0,0.0,61,0.00,,,0.00,WUHU216HW,2013-04-22 13:13:00,
2013-04-22 09:18:00,47.5,34.4,30.30,North,0,0.0,0.0,60,0.00,,,0.00,WUHU216HW,2013-04-22 13:18:00,
2013-04-22 09:23:00,47.5,33.9,30.30,North,0,0.0,0.0,59,0.00,,,0.00,WUHU216HW,2013-04-22 13:23:00,
2013-04-22 09:28:00,47.9,33.9,30.30,North,0,0.0,0.0,58,0.00,,,0.00,WUHU216HW,2013-04-22 13:28:00,
2013-04-22 09:33:00,48.1,34.0,30.30,North,0,0.0,0.0,58,0.00,,,0.00,WUHU216HW,2013-04-22 13:33:00,
2013-04-22 09:38:00,48.6,34.5,30.30,North,0,0.0,0.0,58,0.00,,,0.00,WUHU216HW,2013-04-22 13:38:00,
2013-04-22 09:43:00,49.0,34.4,30.30,North,0,0.0,0.0,57,0.00,,,0.00,WUHU216HW,2013-04-22 13:43:00,
2013-04-22 09:48:00,49.5,34.8,30.30,North,0,0.0,0.0,57,0.00,,,0.00,WUHU216HW,2013-04-22 13:48:00,
2013-04-22 09:53:00,50.0,34.9,30.30,North,0,0.0,0.0,56,0.00,,,0.00,WUHU216HW,2013-04-22 13:53:00,
2013-04-22 09:59:00,50.8,35.1,30.30,North,0,0.0,0.0,55,0.00,,,0.00,WUHU216HW,2013-04-22 13:59:00,
2013-04-22 10:04:00,51.1,34.6,30.30,North,0,0.0,0.0,53,0.00,,,0.00,WUHU216HW,2013-04-22 14:04:00,
2013-04-22 10:09:00,51.7,35.0,30.30,North,0,0.0,0.0,53,0.00,,,0.00,WUHU216HW,2013-04-22 14:09:00,
2013-04-22 10:14:00,51.8,34.7,30.30,North,0,0.0,0.0,52,0.00,,,0.00,WUHU216HW,2013-04-22 14:14:00,
2013-04-22 10:19:00,52.6,35.4,30.30,North,0,0.0,0.0,52,0.00,,,0.00,WUHU216HW,2013-04-22 14:19:00,
2013-04-22 10:24:00,52.7,35.1,30.30,North,0,0.0,0.0,51,0.00,,,0.00,WUHU216HW,2013-04-22 14:24:00,
2013-04-22 10:29:00,53.1,35.5,30.30,North,0,0.0,0.0,51,0.00,,,0.00,WUHU216HW,2013-04-22 14:29:00,
2013-04-22 10:34:00,53.5,35.3,30.30,North,0,0.0,0.0,50,0.00,,,0.00,WUHU216HW,2013-04-22 14:34:00,
2013-04-22 10:40:00,53.8,36.1,30.29,North,0,0.0,0.0,51,0.00,,,0.00,WUHU216HW,2013-04-22 14:40:00,
2013-04-22 10:45:00,54.5,36.3,30.29,North,0,0.0,0.0,50,0.00,,,0.00,WUHU216HW,2013-04-22 14:45:00,
2013-04-22 10:50:00,54.9,36.6,30.29,North,0,0.0,0.0,50,0.00,,,0.00,WUHU216HW,2013-04-22 14:50:00,
2013-04-22 10:55:00,55.4,37.1,30.29,North,0,0.0,0.0,50,0.00,,,0.00,WUHU216HW,2013-04-22 14:55:00,
2013-04-22 11:00:00,55.6,37.3,30.29,North,0,0.0,0.0,50,0.00,,,0.00,WUHU216HW,2013-04-22 15:00:00,
2013-04-22 11:05:00,56.2,37.8,30.29,North,0,0.0,0.0,50,0.00,,,0.00,WUHU216HW,2013-04-22 15:05:00,
2013-04-22 11:10:00,56.9,38.0,30.29,North,0,0.0,0.0,49,0.00,,,0.00,WUHU216HW,2013-04-22 15:10:00,
2013-04-22 11:15:00,57.1,37.5,30.29,North,0,0.0,0.0,48,0.00,,,0.00,WUHU216HW,2013-04-22 15:15:00,
2013-04-22 11:20:00,57.2,37.7,30.28,North,0,0.0,0.0,48,0.00,,,0.00,WUHU216HW,2013-04-22 15:20:00,
2013-04-22 11:26:00,57.1,36.4,30.28,North,0,0.0,0.0,46,0.00,,,0.00,WUHU216HW,2013-04-22 15:26:00,
2013-04-22 11:31:00,57.1,37.0,30.28,North,0,0.0,0.0,47,0.00,,,0.00,WUHU216HW,2013-04-22 15:31:00,
2013-04-22 11:36:00,57.2,36.5,30.27,North,0,0.0,0.0,46,0.00,,,0.00,WUHU216HW,2013-04-22 15:36:00,
2013-04-22 11:41:00,57.6,37.4,30.27,North,0,0.0,0.0,47,0.00,,,0.00,WUHU216HW,2013-04-22 15:41:00,
2013-04-22 11:46:00,58.1,37.4,30.27,North,0,0.0,0.0,46,0.00,,,0.00,WUHU216HW,2013-04-22 15:46:00,
2013-04-22 11:51:00,58.3,37.0,30.26,North,0,0.0,0.0,45,0.00,,,0.00,WUHU216HW,2013-04-22 15:51:00,
2013-04-22 11:56:00,58.1,36.8,30.26,North,0,0.0,0.0,45,0.00,,,0.00,WUHU216HW,2013-04-22 15:56:00,
2013-04-22 12:01:00,58.1,36.8,30.26,North,0,0.0,0.0,45,0.00,,,0.00,WUHU216HW,2013-04-22 16:01:00,
2013-04-22 12:06:00,58.0,36.1,30.25,North,0,0.0,0.0,44,0.00,,,0.00,WUHU216HW,2013-04-22 16:06:00,
2013-04-22 12:12:00,58.3,36.4,30.25,North,0,0.0,0.0,44,0.00,,,0.00,WUHU216HW,2013-04-22 16:12:00,
2013-04-22 12:17:00,58.7,36.7,30.25,North,0,0.0,0.0,44,0.00,,,0.00,WUHU216HW,2013-04-22 16:17:00,
2013-04-22 12:22:00,58.9,36.9,30.25,North,0,0.0,0.0,44,0.00,,,0.00,WUHU216HW,2013-04-22 16:22:00,
2013-04-22 12:27:00,59.0,37.1,30.25,North,0,0.0,0.0,44,0.00,,,0.00,WUHU216HW,2013-04-22 16:27:00,
2013-04-22 12:32:00,59.0,35.9,30.24,North,0,0.0,0.0,42,0.00,,,0.00,WUHU216HW,2013-04-22 16:32:00,
2013-04-22 12:37:00,59.0,36.5,30.24,North,0,0.0,0.0,43,0.00,,,0.00,WUHU216HW,2013-04-22 16:37:00,
2013-04-22 12:42:00,59.8,37.1,30.24,North,0,0.0,0.0,43,0.00,,,0.00,WUHU216HW,2013-04-22 16:42:00,
2013-04-22 12:47:00,59.9,36.1,30.23,North,0,0.0,0.0,41,0.00,,,0.00,WUHU216HW,2013-04-22 16:47:00,
2013-04-22 12:53:00,59.9,36.1,30.23,North,0,0.0,0.0,41,0.00,,,0.00,WUHU216HW,2013-04-22 16:53:00,
2013-04-22 12:58:00,59.8,35.4,30.22,North,0,0.0,0.0,40,0.00,,,0.00,WUHU216HW,2013-04-22 16:58:00,
2013-04-22 13:03:00,60.1,35.7,30.22,North,0,0.0,0.0,40,0.00,,,0.00,WUHU216HW,2013-04-22 17:03:00,
2013-04-22 13:08:00,59.8,35.4,30.22,North,0,0.0,0.0,40,0.00,,,0.00,WUHU216HW,2013-04-22 17:08:00,
2013-04-22 13:13:00,59.9,35.6,30.22,North,0,0.0,0.0,40,0.00,,,0.00,WUHU216HW,2013-04-22 17:13:00,
2013-04-22 13:18:00,60.7,36.8,30.22,North,0,0.0,0.0,41,0.00,,,0.00,WUHU216HW,2013-04-22 17:18:00,
2013-04-22 13:23:00,61.0,35.8,30.22,North,0,0.0,0.0,39,0.00,,,0.00,WUHU216HW,2013-04-22 17:23:00,
2013-04-22 13:29:00,61.2,36.0,30.21,North,0,0.0,0.0,39,0.00,,,0.00,WUHU216HW,2013-04-22 17:29:00,
2013-04-22 13:34:00,61.2,35.3,30.21,North,0,0.0,0.0,38,0.00,,,0.00,WUHU216HW,2013-04-22 17:34:00,
2013-04-22 13:39:00,61.6,36.3,30.21,North,0,0.0,0.0,39,0.00,,,0.00,WUHU216HW,2013-04-22 17:39:00,
2013-04-22 13:44:00,61.9,36.6,30.21,North,0,0.0,0.0,39,0.00,,,0.00,WUHU216HW,2013-04-22 17:44:00,
2013-04-22 13:49:00,62.3,36.9,30.21,North,0,0.0,0.0,39,0.00,,,0.00,WUHU216HW,2013-04-22 17:49:00,
2013-04-22 13:54:00,62.6,37.3,30.20,North,0,0.0,0.0,39,0.00,,,0.00,WUHU216HW,2013-04-22 17:54:00,
2013-04-22 13:59:00,63.0,37.6,30.20,North,0,0.0,0.0,39,0.00,,,0.00,WUHU216HW,2013-04-22 17:59:00,
2013-04-22 14:04:00,63.2,37.0,30.20,North,0,0.0,0.0,38,0.00,,,0.00,WUHU216HW,2013-04-22 18:04:00,
2013-04-22 14:09:00,63.7,38.3,30.20,North,0,0.0,0.0,39,0.00,,,0.00,WUHU216HW,2013-04-22 18:09:00,
2013-04-22 14:15:00,63.9,37.7,30.20,North,0,0.0,0.0,38,0.00,,,0.00,WUHU216HW,2013-04-22 18:15:00,
2013-04-22 14:20:00,63.7,37.5,30.19,North,0,0.0,0.0,38,0.00,,,0.00,WUHU216HW,2013-04-22 18:20:00,
2013-04-22 14:25:00,64.1,37.8,30.19,North,0,0.0,0.0,38,0.00,,,0.00,WUHU216HW,2013-04-22 18:25:00,
2013-04-22 14:30:00,64.1,37.1,30.19,North,0,0.0,0.0,37,0.00,,,0.00,WUHU216HW,2013-04-22 18:30:00,
2013-04-22 14:35:00,63.9,37.0,30.19,North,0,0.0,0.0,37,0.00,,,0.00,WUHU216HW,2013-04-22 18:35:00,
2013-04-22 14:40:00,64.3,37.3,30.19,North,0,0.0,0.0,37,0.00,,,0.00,WUHU216HW,2013-04-22 18:40:00,
2013-04-22 14:45:00,63.9,37.0,30.19,North,0,0.0,0.0,37,0.00,,,0.00,WUHU216HW,2013-04-22 18:45:00,
2013-04-22 14:50:00,64.1,34.9,30.19,North,0,0.0,0.0,34,0.00,,,0.00,WUHU216HW,2013-04-22 18:50:00,
2013-04-22 14:55:00,64.1,36.4,30.18,North,0,0.0,0.0,36,0.00,,,0.00,WUHU216HW,2013-04-22 18:55:00,
2013-04-22 15:01:00,64.1,36.4,30.18,North,0,0.0,0.0,36,0.00,,,0.00,WUHU216HW,2013-04-22 19:01:00,
2013-04-22 15:06:00,64.4,36.7,30.18,North,0,0.0,0.0,36,0.00,,,0.00,WUHU216HW,2013-04-22 19:06:00,
2013-04-22 15:11:00,64.3,36.5,30.17,North,0,0.0,0.0,36,0.00,,,0.00,WUHU216HW,2013-04-22 19:11:00,
2013-04-22 15:16:00,64.6,36.9,30.17,North,0,0.0,0.0,36,0.00,,,0.00,WUHU216HW,2013-04-22 19:16:00,
2013-04-22 15:21:00,64.8,37.1,30.17,North,0,0.0,0.0,36,0.00,,,0.00,WUHU216HW,2013-04-22 19:21:00,
2013-04-22 15:26:00,65.2,37.4,30.17,North,0,0.0,0.0,36,0.00,,,0.00,WUHU216HW,2013-04-22 19:26:00,
2013-04-22 15:31:00,65.3,37.5,30.17,North,0,0.0,0.0,36,0.00,,,0.00,WUHU216HW,2013-04-22 19:31:00,
2013-04-22 15:37:00,65.5,36.3,30.17,North,0,0.0,0.0,34,0.00,,,0.00,WUHU216HW,2013-04-22 19:37:00,
2013-04-22 15:42:00,65.5,35.6,30.17,North,0,0.0,0.0,33,0.00,,,0.00,WUHU216HW,2013-04-22 19:42:00,
2013-04-22 15:47:00,65.0,35.0,30.16,North,0,0.0,0.0,33,0.00,,,0.00,WUHU216HW,2013-04-22 19:47:00,
2013-04-22 15:52:00,64.6,35.5,30.16,North,0,0.0,0.0,34,0.00,,,0.00,WUHU216HW,2013-04-22 19:52:00,
2013-04-22 15:57:00,64.3,34.4,30.15,North,0,0.0,0.0,33,0.00,,,0.00,WUHU216HW,2013-04-22 19:57:00,
2013-04-22 16:02:00,64.1,34.2,30.15,North,0,0.0,0.0,33,0.00,,,0.00,WUHU216HW,2013-04-22 20:02:00,
2013-04-22 16:07:00,64.1,34.2,30.15,North,0,0.0,0.0,33,0.00,,,0.00,WUHU216HW,2013-04-22 20:07:00,
2013-04-22 16:12:00,63.7,33.9,30.14,North,0,0.0,0.0,33,0.00,,,0.00,WUHU216HW,2013-04-22 20:12:00,
2013-04-22 16:17:00,64.1,34.2,30.14,North,0,0.0,0.0,33,0.00,,,0.00,WUHU216HW,2013-04-22 20:17:00,
2013-04-22 16:23:00,64.4,35.3,30.14,North,0,0.0,0.0,34,0.00,,,0.00,WUHU216HW,2013-04-22 20:23:00,
2013-04-22 16:28:00,64.4,34.6,30.14,North,0,0.0,0.0,33,0.00,,,0.00,WUHU216HW,2013-04-22 20:28:00,
2013-04-22 16:33:00,64.4,34.6,30.14,North,0,0.0,0.0,33,0.00,,,0.00,WUHU216HW,2013-04-22 20:33:00,
2013-04-22 16:38:00,64.6,35.5,30.14,North,0,0.0,0.0,34,0.00,,,0.00,WUHU216HW,2013-04-22 20:38:00,
2013-04-22 16:43:00,64.6,34.8,30.13,North,0,0.0,0.0,33,0.00,,,0.00,WUHU216HW,2013-04-22 20:43:00,
2013-04-22 16:48:00,64.8,34.9,30.13,North,0,0.0,0.0,33,0.00,,,0.00,WUHU216HW,2013-04-22 20:48:00,
2013-04-22 16:53:00,64.8,35.7,30.13,North,0,0.0,0.0,34,0.00,,,0.00,WUHU216HW,2013-04-22 20:53:00,
2013-04-22 16:58:00,65.0,35.0,30.13,North,0,0.0,0.0,33,0.00,,,0.00,WUHU216HW,2013-04-22 20:58:00,
2013-04-22 17:03:00,64.6,34.8,30.13,North,0,0.0,0.0,33,0.00,,,0.00,WUHU216HW,2013-04-22 21:03:00,
2013-04-22 17:09:00,64.4,34.6,30.12,North,0,0.0,0.0,33,0.00,,,0.00,WUHU216HW,2013-04-22 21:09:00,
2013-04-22 17:14:00,64.4,34.6,30.12,North,0,0.0,0.0,33,0.00,,,0.00,WUHU216HW,2013-04-22 21:14:00,
2013-04-22 17:19:00,64.3,34.4,30.12,North,0,0.0,0.0,33,0.00,,,0.00,WUHU216HW,2013-04-22 21:19:00,
2013-04-22 17:24:00,64.1,34.2,30.12,North,0,0.0,0.0,33,0.00,,,0.00,WUHU216HW,2013-04-22 21:24:00,
2013-04-22 17:29:00,63.7,33.9,30.12,North,0,0.0,0.0,33,0.00,,,0.00,WUHU216HW,2013-04-22 21:29:00,
2013-04-22 17:34:00,63.7,33.9,30.12,North,0,0.0,0.0,33,0.00,,,0.00,WUHU216HW,2013-04-22 21:34:00,
2013-04-22 17:39:00,63.9,34.8,30.12,North,0,0.0,0.0,34,0.00,,,0.00,WUHU216HW,2013-04-22 21:39:00,
2013-04-22 17:44:00,64.1,36.4,30.12,North,0,0.0,0.0,36,0.00,,,0.00,WUHU216HW,2013-04-22 21:44:00,
2013-04-22 17:50:00,64.6,37.6,30.12,North,0,0.0,0.0,37,0.00,,,0.00,WUHU216HW,2013-04-22 21:50:00,
2013-04-22 17:55:00,64.4,36.0,30.12,North,0,0.0,0.0,35,0.00,,,0.00,WUHU216HW,2013-04-22 21:55:00,
2013-04-22 18:00:00,64.1,34.9,30.12,North,0,0.0,0.0,34,0.00,,,0.00,WUHU216HW,2013-04-22 22:00:00,
2013-04-22 18:05:00,63.7,34.7,30.12,North,0,0.0,0.0,34,0.00,,,0.00,WUHU216HW,2013-04-22 22:05:00,
2013-04-22 18:10:00,63.4,34.3,30.12,North,0,0.0,0.0,34,0.00,,,0.00,WUHU216HW,2013-04-22 22:10:00,
2013-04-22 18:15:00,63.4,34.3,30.12,North,0,0.0,0.0,34,0.00,,,0.00,WUHU216HW,2013-04-22 22:15:00,
2013-04-22 18:20:00,63.4,35.0,30.12,North,0,0.0,0.0,35,0.00,,,0.00,WUHU216HW,2013-04-22 22:20:00,
2013-04-22 18:25:00,63.4,35.0,30.12,North,0,0.0,0.0,35,0.00,,,0.00,WUHU216HW,2013-04-22 22:25:00,
2013-04-22 18:31:00,63.2,34.1,30.12,North,0,0.0,0.0,34,0.00,,,0.00,WUHU216HW,2013-04-22 22:31:00,
2013-04-22 18:36:00,63.2,34.8,30.12,North,0,0.0,0.0,35,0.00,,,0.00,WUHU216HW,2013-04-22 22:36:00,
2013-04-22 18:41:00,63.0,34.0,30.12,North,0,0.0,0.0,34,0.00,,,0.00,WUHU216HW,2013-04-22 22:41:00,
2013-04-22 18:46:00,62.8,33.9,30.12,North,0,0.0,0.0,34,0.00,,,0.00,WUHU216HW,2013-04-22 22:46:00,
2013-04-22 18:51:00,62.8,33.9,30.12,North,0,0.0,0.0,34,0.00,,,0.00,WUHU216HW,2013-04-22 22:51:00,
2013-04-22 18:56:00,62.6,33.7,30.12,North,0,0.0,0.0,34,0.00,,,0.00,WUHU216HW,2013-04-22 22:56:00,
2013-04-22 19:01:00,62.5,34.2,30.12,North,0,0.0,0.0,35,0.00,,,0.00,WUHU216HW,2013-04-22 23:01:00,
2013-04-22 19:06:00,62.6,36.5,30.12,North,0,0.0,0.0,38,0.00,,,0.00,WUHU216HW,2013-04-22 23:06:00,
2013-04-22 19:11:00,63.5,38.1,30.12,North,0,0.0,0.0,39,0.00,,,0.00,WUHU216HW,2013-04-22 23:11:00,
2013-04-22 19:17:00,67.1,40.6,30.12,North,0,0.0,0.0,38,0.00,,,0.00,WUHU216HW,2013-04-22 23:17:00,
2013-04-22 19:22:00,68.2,40.8,30.12,North,0,0.0,0.0,37,0.00,,,0.00,WUHU216HW,2013-04-22 23:22:00,
2013-04-22 19:27:00,67.7,40.3,30.12,North,0,0.0,0.0,37,0.00,,,0.00,WUHU216HW,2013-04-22 23:27:00,
2013-04-22 19:32:00,66.8,39.5,30.12,North,0,0.0,0.0,37,0.00,,,0.00,WUHU216HW,2013-04-22 23:32:00,
2013-04-22 19:37:00,65.9,38.0,30.12,North,0,0.0,0.0,36,0.00,,,0.00,WUHU216HW,2013-04-22 23:37:00,
2013-04-22 19:42:00,65.2,38.1,30.12,North,0,0.0,0.0,37,0.00,,,0.00,WUHU216HW,2013-04-22 23:42:00,
2013-04-22 19:47:00,64.4,37.4,30.12,North,0,0.0,0.0,37,0.00,,,0.00,WUHU216HW,2013-04-22 23:47:00,
2013-04-22 19:52:00,63.9,37.7,30.12,North,0,0.0,0.0,38,0.00,,,0.00,WUHU216HW,2013-04-22 23:52:00,
2013-04-22 19:58:00,63.5,38.1,30.12,North,0,0.0,0.0,39,0.00,,,0.00,WUHU216HW,2013-04-22 23:58:00,
2013-04-22 20:03:00,63.0,38.4,30.12,North,0,0.0,0.0,40,0.00,,,0.00,WUHU216HW,2013-04-23 00:03:00,
2013-04-22 20:08:00,62.3,37.6,30.12,North,0,0.0,0.0,40,0.00,,,0.00,WUHU216HW,2013-04-23 00:08:00,
2013-04-22 20:13:00,61.9,37.9,30.13,North,0,0.0,0.0,41,0.00,,,0.00,WUHU216HW,2013-04-23 00:13:00,
2013-04-22 20:18:00,61.4,37.5,30.13,North,0,0.0,0.0,41,0.00,,,0.00,WUHU216HW,2013-04-23 00:18:00,
2013-04-22 20:23:00,61.0,37.7,30.13,North,0,0.0,0.0,42,0.00,,,0.00,WUHU216HW,2013-04-23 00:23:00,
2013-04-22 20:28:00,60.5,37.8,30.13,North,0,0.0,0.0,43,0.00,,,0.00,WUHU216HW,2013-04-23 00:28:00,
2013-04-22 20:33:00,60.1,37.4,30.13,North,0,0.0,0.0,43,0.00,,,0.00,WUHU216HW,2013-04-23 00:33:00,
2013-04-22 20:38:00,59.8,37.7,30.13,North,0,0.0,0.0,44,0.00,,,0.00,WUHU216HW,2013-04-23 00:38:00,
2013-04-22 20:44:00,59.4,37.4,30.13,North,0,0.0,0.0,44,0.00,,,0.00,WUHU216HW,2013-04-23 00:44:00,
2013-04-22 20:49:00,59.0,37.6,30.13,North,0,0.0,0.0,45,0.00,,,0.00,WUHU216HW,2013-04-23 00:49:00,
2013-04-22 20:54:00,58.7,37.9,30.14,North,0,0.0,0.0,46,0.00,,,0.00,WUHU216HW,2013-04-23 00:54:00,
2013-04-22 20:59:00,58.5,37.7,30.14,North,0,0.0,0.0,46,0.00,,,0.00,WUHU216HW,2013-04-23 00:59:00,
2013-04-22 21:04:00,58.1,37.4,30.14,North,0,0.0,0.0,46,0.00,,,0.00,WUHU216HW,2013-04-23 01:04:00,
2013-04-22 21:09:00,57.8,37.6,30.14,North,0,0.0,0.0,47,0.00,,,0.00,WUHU216HW,2013-04-23 01:09:00,
2013-04-22 21:14:00,57.6,38.1,30.14,North,0,0.0,0.0,48,0.00,,,0.00,WUHU216HW,2013-04-23 01:14:00,
2013-04-22 21:19:00,57.2,38.4,30.14,North,0,0.0,0.0,49,0.00,,,0.00,WUHU216HW,2013-04-23 01:19:00,
2013-04-22 21:24:00,57.1,38.2,30.15,North,0,0.0,0.0,49,0.00,,,0.00,WUHU216HW,2013-04-23 01:24:00,
2013-04-22 21:29:00,56.7,38.3,30.15,North,0,0.0,0.0,50,0.00,,,0.00,WUHU216HW,2013-04-23 01:29:00,
2013-04-22 21:34:00,56.5,38.2,30.15,North,0,0.0,0.0,50,0.00,,,0.00,WUHU216HW,2013-04-23 01:34:00,
2013-04-22 21:40:00,56.3,38.4,30.15,North,0,0.0,0.0,51,0.00,,,0.00,WUHU216HW,2013-04-23 01:40:00,
2013-04-22 21:45:00,56.0,38.1,30.15,North,0,0.0,0.0,51,0.00,,,0.00,WUHU216HW,2013-04-23 01:45:00,
2013-04-22 21:50:00,55.8,37.9,30.14,North,0,0.0,0.0,51,0.00,,,0.00,WUHU216HW,2013-04-23 01:50:00,
2013-04-22 21:55:00,55.6,38.2,30.14,North,0,0.0,0.0,52,0.00,,,0.00,WUHU216HW,2013-04-23 01:55:00,
2013-04-22 22:00:00,55.4,38.0,30.15,North,0,0.0,0.0,52,0.00,,,0.00,WUHU216HW,2013-04-23 02:00:00,
2013-04-22 22:05:00,55.1,37.7,30.15,North,0,0.0,0.0,52,0.00,,,0.00,WUHU216HW,2013-04-23 02:05:00,
2013-04-22 22:10:00,55.1,38.2,30.15,North,0,0.0,0.0,53,0.00,,,0.00,WUHU216HW,2013-04-23 02:10:00,
2013-04-22 22:16:00,54.9,38.4,30.15,North,0,0.0,0.0,54,0.00,,,0.00,WUHU216HW,2013-04-23 02:16:00,
2013-04-22 22:21:00,54.7,38.4,30.15,North,0,0.0,0.0,54,0.00,,,0.00,WUHU216HW,2013-04-23 02:21:00,
2013-04-22 22:26:00,54.7,38.4,30.15,North,0,0.0,0.0,54,0.00,,,0.00,WUHU216HW,2013-04-23 02:26:00,
2013-04-22 22:31:00,54.5,38.2,30.15,North,0,0.0,0.0,54,0.00,,,0.00,WUHU216HW,2013-04-23 02:31:00,
2013-04-22 22:36:00,54.4,38.4,30.15,North,0,0.0,0.0,55,0.00,,,0.00,WUHU216HW,2013-04-23 02:36:00,
2013-04-22 22:41:00,54.2,38.3,30.15,North,0,0.0,0.0,55,0.00,,,0.00,WUHU216HW,2013-04-23 02:41:00,
2013-04-22 22:46:00,54.0,38.2,30.15,North,0,0.0,0.0,55,0.00,,,0.00,WUHU216HW,2013-04-23 02:46:00,
2013-04-22 22:51:00,54.0,38.2,30.15,North,0,0.0,0.0,55,0.00,,,0.00,WUHU216HW,2013-04-23 02:51:00,
2013-04-22 22:56:00,53.8,38.4,30.15,North,0,0.0,0.0,56,0.00,,,0.00,WUHU216HW,2013-04-23 02:56:00,
2013-04-22 23:01:00,53.8,38.4,30.14,North,0,0.0,0.0,56,0.00,,,0.00,WUHU216HW,2013-04-23 03:01:00,
2013-04-22 23:07:00,53.6,38.3,30.14,North,0,0.0,0.0,56,0.00,,,0.00,WUHU216HW,2013-04-23 03:07:00,
2013-04-22 23:12:00,53.6,38.3,30.14,North,0,0.0,0.0,56,0.00,,,0.00,WUHU216HW,2013-04-23 03:12:00,
2013-04-22 23:17:00,53.6,38.7,30.14,North,0,0.0,0.0,57,0.00,,,0.00,WUHU216HW,2013-04-23 03:17:00,
2013-04-22 23:22:00,53.6,38.7,30.14,North,0,0.0,0.0,57,0.00,,,0.00,WUHU216HW,2013-04-23 03:22:00,
2013-04-22 23:27:00,53.6,38.7,30.14,North,0,0.0,0.0,57,0.00,,,0.00,WUHU216HW,2013-04-23 03:27:00,
2013-04-22 23:32:00,53.5,38.5,30.14,North,0,0.0,0.0,57,0.00,,,0.00,WUHU216HW,2013-04-23 03:32:00,
2013-04-22 23:37:00,53.5,39.1,30.14,North,0,0.0,0.0,58,0.00,,,0.00,WUHU216HW,2013-04-23 03:37:00,
2013-04-22 23:42:00,53.5,38.5,30.14,North,0,0.0,0.0,57,0.00,,,0.00,WUHU216HW,2013-04-23 03:42:00,
2013-04-22 23:47:00,53.3,38.9,30.14,North,0,0.0,0.0,58,0.00,,,0.00,WUHU216HW,2013-04-23 03:47:00,
2013-04-22 23:52:00,53.3,38.9,30.14,North,0,0.0,0.0,58,0.00,,,0.00,WUHU216HW,2013-04-23 03:52:00,
2013-04-22 23:57:00,53.1,38.7,30.14,North,0,0.0,0.0,58,0.00,,,0.00,WUHU216HW,2013-04-23 03:57:00,